sensor_id;sensor_type;location;lat;lon;timestamp;P1;durP1;ratioP1;P2;durP2;ratioP2
15454;SDS011;21057;51.024;7.540;2023-05-10T00:02:25;28.20;;;26.50;;
15454;SDS011;21057;51.024;7.540;2023-05-10T00:04:52;28.10;;;26.37;;
15454;SDS011;21057;51.024;7.540;2023-05-10T00:07:19;29.33;;;27.30;;
15454;SDS011;21057;51.024;7.540;2023-05-10T00:09:46;27.37;;;25.67;;
15454;SDS011;21057;51.024;7.540;2023-05-10T00:12:14;27.87;;;26.17;;
15454;SDS011;21057;51.024;7.540;2023-05-10T00:14:41;27.70;;;25.97;;
15454;SDS011;21057;51.024;7.540;2023-05-10T00:17:08;28.03;;;26.13;;
15454;SDS011;21057;51.024;7.540;2023-05-10T00:19:36;27.80;;;25.93;;
15454;SDS011;21057;51.024;7.540;2023-05-10T00:22:03;29.87;;;27.90;;
15454;SDS011;21057;51.024;7.540;2023-05-10T00:24:30;29.40;;;27.30;;
15454;SDS011;21057;51.024;7.540;2023-05-10T00:26:57;30.57;;;28.47;;
15454;SDS011;21057;51.024;7.540;2023-05-10T00:29:23;29.93;;;27.83;;
15454;SDS011;21057;51.024;7.540;2023-05-10T00:31:50;28.07;;;26.23;;
15454;SDS011;21057;51.024;7.540;2023-05-10T00:34:17;29.17;;;27.30;;
15454;SDS011;21057;51.024;7.540;2023-05-10T00:36:45;28.90;;;27.10;;
15454;SDS011;21057;51.024;7.540;2023-05-10T00:39:12;28.90;;;27.10;;
15454;SDS011;21057;51.024;7.540;2023-05-10T00:41:39;29.50;;;27.57;;
15454;SDS011;21057;51.024;7.540;2023-05-10T00:44:06;30.13;;;28.23;;
15454;SDS011;21057;51.024;7.540;2023-05-10T00:46:33;29.60;;;27.70;;
15454;SDS011;21057;51.024;7.540;2023-05-10T00:49:00;29.50;;;27.60;;
15454;SDS011;21057;51.024;7.540;2023-05-10T00:51:27;27.70;;;25.80;;
15454;SDS011;21057;51.024;7.540;2023-05-10T00:53:55;28.53;;;26.57;;
15454;SDS011;21057;51.024;7.540;2023-05-10T00:56:22;28.73;;;26.93;;
15454;SDS011;21057;51.024;7.540;2023-05-10T00:58:49;27.50;;;25.70;;
15454;SDS011;21057;51.024;7.540;2023-05-10T01:01:16;28.60;;;26.50;;
15454;SDS011;21057;51.024;7.540;2023-05-10T01:03:43;28.40;;;26.40;;
15454;SDS011;21057;51.024;7.540;2023-05-10T01:06:10;28.63;;;26.70;;
15454;SDS011;21057;51.024;7.540;2023-05-10T01:08:37;27.93;;;26.07;;
15454;SDS011;21057;51.024;7.540;2023-05-10T01:11:06;28.97;;;26.97;;
15454;SDS011;21057;51.024;7.540;2023-05-10T01:13:34;29.93;;;27.90;;
15454;SDS011;21057;51.024;7.540;2023-05-10T01:16:05;30.30;;;28.27;;
15454;SDS011;21057;51.024;7.540;2023-05-10T01:18:33;28.07;;;26.17;;
15454;SDS011;21057;51.024;7.540;2023-05-10T01:21:07;28.50;;;26.50;;
15454;SDS011;21057;51.024;7.540;2023-05-10T01:29:52;30.37;;;28.07;;
15454;SDS011;21057;51.024;7.540;2023-05-10T01:32:41;30.13;;;28.03;;
15454;SDS011;21057;51.024;7.540;2023-05-10T01:35:13;31.57;;;29.10;;
15454;SDS011;21057;51.024;7.540;2023-05-10T01:37:46;30.97;;;28.67;;
15454;SDS011;21057;51.024;7.540;2023-05-10T01:40:17;31.10;;;28.90;;
15454;SDS011;21057;51.024;7.540;2023-05-10T01:42:53;30.83;;;28.67;;
15454;SDS011;21057;51.024;7.540;2023-05-10T01:45:27;31.30;;;28.83;;
15454;SDS011;21057;51.024;7.540;2023-05-10T01:48:08;31.10;;;28.97;;
15454;SDS011;21057;51.024;7.540;2023-05-10T01:50:38;30.20;;;27.73;;
15454;SDS011;21057;51.024;7.540;2023-05-10T01:53:09;30.47;;;28.43;;
15454;SDS011;21057;51.024;7.540;2023-05-10T01:55:39;31.30;;;29.00;;
15454;SDS011;21057;51.024;7.540;2023-05-10T01:58:13;30.67;;;28.37;;
15454;SDS011;21057;51.024;7.540;2023-05-10T02:00:44;31.00;;;28.90;;
15454;SDS011;21057;51.024;7.540;2023-05-10T02:03:14;30.37;;;28.23;;
15454;SDS011;21057;51.024;7.540;2023-05-10T02:05:43;29.70;;;27.40;;
15454;SDS011;21057;51.024;7.540;2023-05-10T02:08:14;29.00;;;26.87;;
15454;SDS011;21057;51.024;7.540;2023-05-10T02:10:44;29.90;;;27.70;;
15454;SDS011;21057;51.024;7.540;2023-05-10T02:13:12;30.93;;;28.57;;
15454;SDS011;21057;51.024;7.540;2023-05-10T02:15:41;29.10;;;26.90;;
15454;SDS011;21057;51.024;7.540;2023-05-10T02:18:09;32.47;;;29.10;;
15454;SDS011;21057;51.024;7.540;2023-05-10T02:20:40;29.83;;;27.53;;
15454;SDS011;21057;51.024;7.540;2023-05-10T02:23:08;31.23;;;29.00;;
15454;SDS011;21057;51.024;7.540;2023-05-10T02:25:37;31.10;;;28.67;;
15454;SDS011;21057;51.024;7.540;2023-05-10T02:28:05;28.23;;;26.33;;
15454;SDS011;21057;51.024;7.540;2023-05-10T02:30:33;31.50;;;29.30;;
15454;SDS011;21057;51.024;7.540;2023-05-10T02:33:01;31.07;;;28.57;;
15454;SDS011;21057;51.024;7.540;2023-05-10T02:35:29;30.67;;;28.43;;
15454;SDS011;21057;51.024;7.540;2023-05-10T02:37:59;31.53;;;29.03;;
15454;SDS011;21057;51.024;7.540;2023-05-10T02:40:27;29.73;;;27.47;;
15454;SDS011;21057;51.024;7.540;2023-05-10T02:42:56;31.03;;;28.73;;
15454;SDS011;21057;51.024;7.540;2023-05-10T02:45:26;31.13;;;28.90;;
15454;SDS011;21057;51.024;7.540;2023-05-10T02:47:56;29.47;;;27.10;;
15454;SDS011;21057;51.024;7.540;2023-05-10T02:50:24;29.57;;;27.37;;
15454;SDS011;21057;51.024;7.540;2023-05-10T02:52:54;31.20;;;28.60;;
15454;SDS011;21057;51.024;7.540;2023-05-10T02:55:29;32.87;;;30.27;;
15454;SDS011;21057;51.024;7.540;2023-05-10T02:58:01;31.43;;;29.00;;
15454;SDS011;21057;51.024;7.540;2023-05-10T03:00:29;32.00;;;29.67;;
15454;SDS011;21057;51.024;7.540;2023-05-10T03:02:56;33.27;;;30.67;;
15454;SDS011;21057;51.024;7.540;2023-05-10T03:05:22;34.13;;;31.53;;
15454;SDS011;21057;51.024;7.540;2023-05-10T03:07:49;32.20;;;29.50;;
15454;SDS011;21057;51.024;7.540;2023-05-10T03:10:17;32.90;;;30.17;;
15454;SDS011;21057;51.024;7.540;2023-05-10T03:12:55;33.70;;;31.07;;
15454;SDS011;21057;51.024;7.540;2023-05-10T03:15:31;34.43;;;31.90;;
15454;SDS011;21057;51.024;7.540;2023-05-10T03:18:04;33.80;;;31.03;;
15454;SDS011;21057;51.024;7.540;2023-05-10T03:20:36;34.33;;;31.93;;
15454;SDS011;21057;51.024;7.540;2023-05-10T03:23:08;33.20;;;30.67;;
15454;SDS011;21057;51.024;7.540;2023-05-10T03:25:39;34.60;;;31.90;;
15454;SDS011;21057;51.024;7.540;2023-05-10T03:28:10;33.67;;;31.17;;
15454;SDS011;21057;51.024;7.540;2023-05-10T03:30:38;31.50;;;29.23;;
15454;SDS011;21057;51.024;7.540;2023-05-10T03:33:06;32.23;;;29.83;;
15454;SDS011;21057;51.024;7.540;2023-05-10T03:35:33;33.23;;;30.77;;
15454;SDS011;21057;51.024;7.540;2023-05-10T03:38:00;34.57;;;32.33;;
15454;SDS011;21057;51.024;7.540;2023-05-10T03:40:27;36.43;;;33.83;;
15454;SDS011;21057;51.024;7.540;2023-05-10T03:42:56;33.10;;;30.70;;
15454;SDS011;21057;51.024;7.540;2023-05-10T03:45:25;33.77;;;31.50;;
15454;SDS011;21057;51.024;7.540;2023-05-10T03:47:52;33.13;;;31.03;;
15454;SDS011;21057;51.024;7.540;2023-05-10T03:50:19;33.13;;;30.73;;
15454;SDS011;21057;51.024;7.540;2023-05-10T03:52:46;34.23;;;31.87;;
15454;SDS011;21057;51.024;7.540;2023-05-10T03:55:12;33.90;;;31.50;;
15454;SDS011;21057;51.024;7.540;2023-05-10T03:57:39;33.80;;;31.70;;
15454;SDS011;21057;51.024;7.540;2023-05-10T04:00:07;36.10;;;33.47;;
15454;SDS011;21057;51.024;7.540;2023-05-10T04:02:36;34.97;;;32.37;;
15454;SDS011;21057;51.024;7.540;2023-05-10T04:05:03;37.37;;;34.87;;
15454;SDS011;21057;51.024;7.540;2023-05-10T04:07:30;35.47;;;33.03;;
15454;SDS011;21057;51.024;7.540;2023-05-10T04:09:57;35.70;;;33.30;;
15454;SDS011;21057;51.024;7.540;2023-05-10T04:12:24;35.77;;;33.27;;
15454;SDS011;21057;51.024;7.540;2023-05-10T04:14:50;35.53;;;32.87;;
15454;SDS011;21057;51.024;7.540;2023-05-10T04:17:17;35.20;;;32.70;;
15454;SDS011;21057;51.024;7.540;2023-05-10T04:19:45;36.10;;;33.77;;
15454;SDS011;21057;51.024;7.540;2023-05-10T04:22:12;38.10;;;35.10;;
15454;SDS011;21057;51.024;7.540;2023-05-10T04:24:39;37.70;;;35.20;;
15454;SDS011;21057;51.024;7.540;2023-05-10T04:27:06;35.87;;;33.37;;
15454;SDS011;21057;51.024;7.540;2023-05-10T04:29:33;37.10;;;33.90;;
15454;SDS011;21057;51.024;7.540;2023-05-10T04:32:00;34.90;;;32.43;;
15454;SDS011;21057;51.024;7.540;2023-05-10T04:34:27;35.43;;;33.03;;
15454;SDS011;21057;51.024;7.540;2023-05-10T04:36:56;37.40;;;34.83;;
15454;SDS011;21057;51.024;7.540;2023-05-10T04:39:22;38.37;;;35.63;;
15454;SDS011;21057;51.024;7.540;2023-05-10T04:41:49;38.40;;;35.53;;
15454;SDS011;21057;51.024;7.540;2023-05-10T04:44:16;37.37;;;34.83;;
15454;SDS011;21057;51.024;7.540;2023-05-10T04:46:44;38.57;;;35.13;;
15454;SDS011;21057;51.024;7.540;2023-05-10T04:49:11;37.50;;;34.70;;
15454;SDS011;21057;51.024;7.540;2023-05-10T04:51:38;36.90;;;34.27;;
15454;SDS011;21057;51.024;7.540;2023-05-10T04:54:06;37.40;;;35.00;;
15454;SDS011;21057;51.024;7.540;2023-05-10T04:56:33;37.17;;;34.67;;
15454;SDS011;21057;51.024;7.540;2023-05-10T04:59:00;38.53;;;35.47;;
15454;SDS011;21057;51.024;7.540;2023-05-10T05:01:26;38.27;;;35.77;;
15454;SDS011;21057;51.024;7.540;2023-05-10T05:03:53;37.27;;;34.87;;
15454;SDS011;21057;51.024;7.540;2023-05-10T05:06:20;38.50;;;35.67;;
15454;SDS011;21057;51.024;7.540;2023-05-10T05:08:47;35.57;;;33.20;;
15454;SDS011;21057;51.024;7.540;2023-05-10T05:11:15;38.53;;;35.83;;
15454;SDS011;21057;51.024;7.540;2023-05-10T05:13:42;38.23;;;35.73;;
15454;SDS011;21057;51.024;7.540;2023-05-10T05:16:09;37.17;;;34.90;;
15454;SDS011;21057;51.024;7.540;2023-05-10T05:18:36;39.00;;;36.03;;
15454;SDS011;21057;51.024;7.540;2023-05-10T05:21:12;38.80;;;36.20;;
15454;SDS011;21057;51.024;7.540;2023-05-10T05:23:39;38.57;;;36.07;;
15454;SDS011;21057;51.024;7.540;2023-05-10T05:26:06;36.50;;;34.10;;
15454;SDS011;21057;51.024;7.540;2023-05-10T05:28:34;37.07;;;34.67;;
15454;SDS011;21057;51.024;7.540;2023-05-10T05:31:02;35.97;;;33.67;;
15454;SDS011;21057;51.024;7.540;2023-05-10T05:33:30;37.47;;;34.63;;
15454;SDS011;21057;51.024;7.540;2023-05-10T05:35:57;37.33;;;34.83;;
15454;SDS011;21057;51.024;7.540;2023-05-10T05:38:26;37.00;;;34.57;;
15454;SDS011;21057;51.024;7.540;2023-05-10T05:40:53;37.53;;;35.03;;
15454;SDS011;21057;51.024;7.540;2023-05-10T05:43:20;39.03;;;36.33;;
15454;SDS011;21057;51.024;7.540;2023-05-10T05:45:48;37.60;;;35.17;;
15454;SDS011;21057;51.024;7.540;2023-05-10T05:48:15;37.33;;;34.73;;
15454;SDS011;21057;51.024;7.540;2023-05-10T05:50:41;37.03;;;34.63;;
15454;SDS011;21057;51.024;7.540;2023-05-10T05:53:08;37.73;;;34.87;;
15454;SDS011;21057;51.024;7.540;2023-05-10T05:55:35;37.53;;;34.57;;
15454;SDS011;21057;51.024;7.540;2023-05-10T05:58:02;35.57;;;32.33;;
15454;SDS011;21057;51.024;7.540;2023-05-10T06:00:29;35.67;;;32.73;;
15454;SDS011;21057;51.024;7.540;2023-05-10T06:02:57;34.93;;;32.20;;
15454;SDS011;21057;51.024;7.540;2023-05-10T06:05:24;35.87;;;32.73;;
15454;SDS011;21057;51.024;7.540;2023-05-10T06:07:51;35.17;;;32.77;;
15454;SDS011;21057;51.024;7.540;2023-05-10T06:10:18;35.17;;;32.60;;
15454;SDS011;21057;51.024;7.540;2023-05-10T06:12:44;35.87;;;33.17;;
15454;SDS011;21057;51.024;7.540;2023-05-10T06:15:11;36.07;;;33.37;;
15454;SDS011;21057;51.024;7.540;2023-05-10T06:17:38;35.23;;;32.60;;
15454;SDS011;21057;51.024;7.540;2023-05-10T06:20:07;36.00;;;33.50;;
15454;SDS011;21057;51.024;7.540;2023-05-10T06:22:35;37.20;;;34.50;;
15454;SDS011;21057;51.024;7.540;2023-05-10T06:25:02;34.87;;;32.13;;
15454;SDS011;21057;51.024;7.540;2023-05-10T06:27:28;35.77;;;33.27;;
15454;SDS011;21057;51.024;7.540;2023-05-10T06:29:55;35.70;;;32.80;;
15454;SDS011;21057;51.024;7.540;2023-05-10T06:32:22;34.20;;;31.63;;
15454;SDS011;21057;51.024;7.540;2023-05-10T06:34:49;36.67;;;33.87;;
15454;SDS011;21057;51.024;7.540;2023-05-10T06:37:17;36.57;;;33.77;;
15454;SDS011;21057;51.024;7.540;2023-05-10T06:39:44;36.70;;;33.53;;
15454;SDS011;21057;51.024;7.540;2023-05-10T06:42:11;36.80;;;33.47;;
15454;SDS011;21057;51.024;7.540;2023-05-10T06:44:37;36.33;;;33.70;;
15454;SDS011;21057;51.024;7.540;2023-05-10T06:47:04;37.97;;;34.63;;
15454;SDS011;21057;51.024;7.540;2023-05-10T06:49:31;37.80;;;34.77;;
15454;SDS011;21057;51.024;7.540;2023-05-10T06:51:58;40.03;;;36.40;;
15454;SDS011;21057;51.024;7.540;2023-05-10T06:54:26;39.80;;;36.33;;
15454;SDS011;21057;51.024;7.540;2023-05-10T06:56:53;41.77;;;37.67;;
15454;SDS011;21057;51.024;7.540;2023-05-10T06:59:20;37.37;;;34.10;;
15454;SDS011;21057;51.024;7.540;2023-05-10T07:01:47;38.07;;;34.70;;
15454;SDS011;21057;51.024;7.540;2023-05-10T07:04:14;38.70;;;35.03;;
15454;SDS011;21057;51.024;7.540;2023-05-10T07:06:42;41.20;;;37.07;;
15454;SDS011;21057;51.024;7.540;2023-05-10T07:09:11;37.70;;;34.50;;
15454;SDS011;21057;51.024;7.540;2023-05-10T07:11:39;39.07;;;35.10;;
15454;SDS011;21057;51.024;7.540;2023-05-10T07:14:06;41.33;;;37.13;;
15454;SDS011;21057;51.024;7.540;2023-05-10T07:16:33;39.00;;;35.33;;
15454;SDS011;21057;51.024;7.540;2023-05-10T07:19:01;39.97;;;36.10;;
15454;SDS011;21057;51.024;7.540;2023-05-10T07:21:31;39.53;;;35.60;;
15454;SDS011;21057;51.024;7.540;2023-05-10T07:23:58;39.70;;;35.50;;
15454;SDS011;21057;51.024;7.540;2023-05-10T07:26:25;39.67;;;35.67;;
15454;SDS011;21057;51.024;7.540;2023-05-10T07:28:54;38.93;;;35.33;;
15454;SDS011;21057;51.024;7.540;2023-05-10T07:31:20;39.07;;;34.97;;
15454;SDS011;21057;51.024;7.540;2023-05-10T07:33:47;38.07;;;34.33;;
15454;SDS011;21057;51.024;7.540;2023-05-10T07:36:14;38.20;;;34.53;;
15454;SDS011;21057;51.024;7.540;2023-05-10T07:38:41;43.20;;;39.03;;
15454;SDS011;21057;51.024;7.540;2023-05-10T07:41:08;40.07;;;36.03;;
15454;SDS011;21057;51.024;7.540;2023-05-10T07:43:35;38.20;;;34.87;;
15454;SDS011;21057;51.024;7.540;2023-05-10T07:46:04;43.33;;;38.93;;
15454;SDS011;21057;51.024;7.540;2023-05-10T07:48:31;39.17;;;35.30;;
15454;SDS011;21057;51.024;7.540;2023-05-10T07:50:58;48.40;;;39.37;;
15454;SDS011;21057;51.024;7.540;2023-05-10T07:53:25;42.70;;;37.77;;
15454;SDS011;21057;51.024;7.540;2023-05-10T07:55:53;48.77;;;36.90;;
15454;SDS011;21057;51.024;7.540;2023-05-10T07:58:23;44.20;;;37.63;;
15454;SDS011;21057;51.024;7.540;2023-05-10T08:00:51;40.17;;;36.20;;
15454;SDS011;21057;51.024;7.540;2023-05-10T08:03:20;42.33;;;36.73;;
15454;SDS011;21057;51.024;7.540;2023-05-10T08:05:47;43.17;;;38.60;;
15454;SDS011;21057;51.024;7.540;2023-05-10T08:08:14;40.67;;;36.27;;
15454;SDS011;21057;51.024;7.540;2023-05-10T08:10:40;47.80;;;37.03;;
15454;SDS011;21057;51.024;7.540;2023-05-10T08:13:07;41.80;;;37.33;;
15454;SDS011;21057;51.024;7.540;2023-05-10T08:15:34;43.37;;;37.90;;
15454;SDS011;21057;51.024;7.540;2023-05-10T08:18:01;39.93;;;35.70;;
15454;SDS011;21057;51.024;7.540;2023-05-10T08:20:30;40.67;;;36.53;;
15454;SDS011;21057;51.024;7.540;2023-05-10T08:22:57;40.77;;;36.77;;
15454;SDS011;21057;51.024;7.540;2023-05-10T08:25:24;41.53;;;36.27;;
15454;SDS011;21057;51.024;7.540;2023-05-10T08:27:51;39.07;;;35.00;;
15454;SDS011;21057;51.024;7.540;2023-05-10T08:30:17;42.07;;;38.20;;
15454;SDS011;21057;51.024;7.540;2023-05-10T08:32:44;41.43;;;37.17;;
15454;SDS011;21057;51.024;7.540;2023-05-10T08:35:11;42.23;;;38.17;;
15454;SDS011;21057;51.024;7.540;2023-05-10T08:37:39;39.60;;;35.63;;
15454;SDS011;21057;51.024;7.540;2023-05-10T08:40:07;39.30;;;35.03;;
15454;SDS011;21057;51.024;7.540;2023-05-10T08:42:39;37.83;;;34.20;;
15454;SDS011;21057;51.024;7.540;2023-05-10T08:45:09;39.00;;;34.27;;
15454;SDS011;21057;51.024;7.540;2023-05-10T08:47:37;37.50;;;33.63;;
15454;SDS011;21057;51.024;7.540;2023-05-10T08:50:05;35.80;;;32.47;;
15454;SDS011;21057;51.024;7.540;2023-05-10T08:52:33;32.50;;;29.63;;
15454;SDS011;21057;51.024;7.540;2023-05-10T08:55:06;33.50;;;30.33;;
15454;SDS011;21057;51.024;7.540;2023-05-10T08:57:34;34.70;;;31.10;;
15454;SDS011;21057;51.024;7.540;2023-05-10T09:00:02;32.07;;;29.13;;
15454;SDS011;21057;51.024;7.540;2023-05-10T09:02:30;32.83;;;30.03;;
15454;SDS011;21057;51.024;7.540;2023-05-10T09:04:57;32.27;;;29.17;;
15454;SDS011;21057;51.024;7.540;2023-05-10T09:07:24;34.57;;;30.90;;
15454;SDS011;21057;51.024;7.540;2023-05-10T09:09:52;32.47;;;29.65;;
15454;SDS011;21057;51.024;7.540;2023-05-10T09:12:20;31.07;;;28.33;;
15454;SDS011;21057;51.024;7.540;2023-05-10T09:14:47;30.90;;;28.45;;
15454;SDS011;21057;51.024;7.540;2023-05-10T09:17:16;29.42;;;27.23;;
15454;SDS011;21057;51.024;7.540;2023-05-10T09:19:42;31.42;;;29.23;;
15454;SDS011;21057;51.024;7.540;2023-05-10T09:22:12;29.08;;;26.73;;
15454;SDS011;21057;51.024;7.540;2023-05-10T09:24:39;29.70;;;27.50;;
15454;SDS011;21057;51.024;7.540;2023-05-10T09:27:11;28.27;;;26.25;;
15454;SDS011;21057;51.024;7.540;2023-05-10T09:29:38;28.52;;;26.25;;
15454;SDS011;21057;51.024;7.540;2023-05-10T09:32:05;29.35;;;27.10;;
15454;SDS011;21057;51.024;7.540;2023-05-10T09:34:32;29.55;;;27.40;;
15454;SDS011;21057;51.024;7.540;2023-05-10T09:37:01;31.40;;;29.00;;
15454;SDS011;21057;51.024;7.540;2023-05-10T09:39:32;30.95;;;28.45;;
15454;SDS011;21057;51.024;7.540;2023-05-10T09:42:01;31.73;;;29.17;;
15454;SDS011;21057;51.024;7.540;2023-05-10T09:44:31;31.92;;;29.42;;
15454;SDS011;21057;51.024;7.540;2023-05-10T09:46:59;32.22;;;29.58;;
15454;SDS011;21057;51.024;7.540;2023-05-10T09:49:26;31.35;;;28.95;;
15454;SDS011;21057;51.024;7.540;2023-05-10T09:51:59;33.10;;;30.55;;
15454;SDS011;21057;51.024;7.540;2023-05-10T09:54:28;32.53;;;29.95;;
15454;SDS011;21057;51.024;7.540;2023-05-10T09:56:55;30.25;;;27.90;;
15454;SDS011;21057;51.024;7.540;2023-05-10T09:59:24;30.27;;;27.88;;
15454;SDS011;21057;51.024;7.540;2023-05-10T10:01:53;29.90;;;27.52;;
15454;SDS011;21057;51.024;7.540;2023-05-10T10:04:23;30.52;;;28.02;;
15454;SDS011;21057;51.024;7.540;2023-05-10T10:07:00;29.58;;;27.25;;
15454;SDS011;21057;51.024;7.540;2023-05-10T10:09:28;28.73;;;26.25;;
15454;SDS011;21057;51.024;7.540;2023-05-10T10:11:55;29.17;;;27.13;;
15454;SDS011;21057;51.024;7.540;2023-05-10T10:14:22;28.48;;;26.27;;
15454;SDS011;21057;51.024;7.540;2023-05-10T10:16:50;28.00;;;25.90;;
15454;SDS011;21057;51.024;7.540;2023-05-10T10:19:19;27.88;;;25.88;;
15454;SDS011;21057;51.024;7.540;2023-05-10T10:21:46;27.10;;;25.00;;
15454;SDS011;21057;51.024;7.540;2023-05-10T10:24:13;26.73;;;24.67;;
15454;SDS011;21057;51.024;7.540;2023-05-10T10:26:40;27.40;;;25.20;;
15454;SDS011;21057;51.024;7.540;2023-05-10T10:29:12;27.60;;;25.35;;
15454;SDS011;21057;51.024;7.540;2023-05-10T10:31:47;26.92;;;24.85;;
15454;SDS011;21057;51.024;7.540;2023-05-10T10:34:23;24.55;;;22.85;;
15454;SDS011;21057;51.024;7.540;2023-05-10T10:36:53;25.17;;;23.38;;
15454;SDS011;21057;51.024;7.540;2023-05-10T10:39:21;26.52;;;24.83;;
15454;SDS011;21057;51.024;7.540;2023-05-10T10:41:51;27.35;;;25.75;;
15454;SDS011;21057;51.024;7.540;2023-05-10T10:44:25;28.02;;;26.23;;
15454;SDS011;21057;51.024;7.540;2023-05-10T10:47:01;28.73;;;26.93;;
15454;SDS011;21057;51.024;7.540;2023-05-10T10:49:32;29.10;;;27.30;;
15454;SDS011;21057;51.024;7.540;2023-05-10T10:52:13;29.00;;;27.10;;
15454;SDS011;21057;51.024;7.540;2023-05-10T10:54:53;29.73;;;27.73;;
15454;SDS011;21057;51.024;7.540;2023-05-10T10:57:24;29.97;;;28.13;;
15454;SDS011;21057;51.024;7.540;2023-05-10T10:59:54;29.67;;;27.77;;
15454;SDS011;21057;51.024;7.540;2023-05-10T11:02:44;29.77;;;27.60;;
15454;SDS011;21057;51.024;7.540;2023-05-10T11:05:24;31.33;;;28.70;;
15454;SDS011;21057;51.024;7.540;2023-05-10T11:07:59;31.43;;;29.33;;
15454;SDS011;21057;51.024;7.540;2023-05-10T11:10:38;31.37;;;28.70;;
15454;SDS011;21057;51.024;7.540;2023-05-10T11:13:07;31.87;;;29.37;;
15454;SDS011;21057;51.024;7.540;2023-05-10T11:15:35;32.43;;;29.70;;
15454;SDS011;21057;51.024;7.540;2023-05-10T11:18:19;32.67;;;30.07;;
15454;SDS011;21057;51.024;7.540;2023-05-10T11:20:51;33.33;;;30.40;;
15454;SDS011;21057;51.024;7.540;2023-05-10T11:23:18;33.40;;;30.70;;
15454;SDS011;21057;51.024;7.540;2023-05-10T11:25:46;33.20;;;30.47;;
15454;SDS011;21057;51.024;7.540;2023-05-10T11:28:16;34.50;;;31.43;;
15454;SDS011;21057;51.024;7.540;2023-05-10T11:30:43;35.63;;;32.03;;
15454;SDS011;21057;51.024;7.540;2023-05-10T11:33:14;32.37;;;29.77;;
15454;SDS011;21057;51.024;7.540;2023-05-10T11:35:42;34.37;;;31.30;;
15454;SDS011;21057;51.024;7.540;2023-05-10T11:38:11;34.27;;;31.33;;
15454;SDS011;21057;51.024;7.540;2023-05-10T11:40:39;35.15;;;31.85;;
15454;SDS011;21057;51.024;7.540;2023-05-10T11:43:08;34.97;;;31.33;;
15454;SDS011;21057;51.024;7.540;2023-05-10T11:45:36;35.73;;;32.33;;
15454;SDS011;21057;51.024;7.540;2023-05-10T11:48:03;32.93;;;30.37;;
15454;SDS011;21057;51.024;7.540;2023-05-10T11:50:30;36.87;;;33.17;;
15454;SDS011;21057;51.024;7.540;2023-05-10T11:52:57;37.17;;;33.93;;
15454;SDS011;21057;51.024;7.540;2023-05-10T11:55:26;35.30;;;32.23;;
15454;SDS011;21057;51.024;7.540;2023-05-10T11:57:55;34.77;;;31.87;;
15454;SDS011;21057;51.024;7.540;2023-05-10T12:00:27;36.30;;;32.63;;
15454;SDS011;21057;51.024;7.540;2023-05-10T12:02:54;36.70;;;33.03;;
15454;SDS011;21057;51.024;7.540;2023-05-10T12:05:21;35.73;;;32.40;;
15454;SDS011;21057;51.024;7.540;2023-05-10T12:07:48;36.07;;;32.20;;
15454;SDS011;21057;51.024;7.540;2023-05-10T12:10:15;35.70;;;32.47;;
15454;SDS011;21057;51.024;7.540;2023-05-10T12:12:44;34.47;;;31.27;;
15454;SDS011;21057;51.024;7.540;2023-05-10T12:15:12;35.33;;;31.73;;
15454;SDS011;21057;51.024;7.540;2023-05-10T12:17:44;36.20;;;32.30;;
15454;SDS011;21057;51.024;7.540;2023-05-10T12:20:15;36.63;;;33.20;;
15454;SDS011;21057;51.024;7.540;2023-05-10T12:22:48;36.80;;;33.43;;
15454;SDS011;21057;51.024;7.540;2023-05-10T12:25:16;37.70;;;33.03;;
15454;SDS011;21057;51.024;7.540;2023-05-10T12:27:52;36.63;;;33.00;;
15454;SDS011;21057;51.024;7.540;2023-05-10T12:30:20;35.55;;;32.08;;
15454;SDS011;21057;51.024;7.540;2023-05-10T12:32:50;33.75;;;30.73;;
15454;SDS011;21057;51.024;7.540;2023-05-10T12:35:18;35.17;;;31.98;;
15454;SDS011;21057;51.024;7.540;2023-05-10T12:37:47;32.95;;;29.95;;
15454;SDS011;21057;51.024;7.540;2023-05-10T12:40:14;32.97;;;29.98;;
15454;SDS011;21057;51.024;7.540;2023-05-10T12:42:41;31.15;;;28.25;;
15454;SDS011;21057;51.024;7.540;2023-05-10T12:45:11;28.38;;;25.92;;
15454;SDS011;21057;51.024;7.540;2023-05-10T12:47:38;29.50;;;26.70;;
15454;SDS011;21057;51.024;7.540;2023-05-10T12:50:05;30.60;;;27.70;;
15454;SDS011;21057;51.024;7.540;2023-05-10T12:52:33;31.20;;;28.65;;
15454;SDS011;21057;51.024;7.540;2023-05-10T12:55:01;31.17;;;28.33;;
15454;SDS011;21057;51.024;7.540;2023-05-10T12:57:28;32.78;;;29.55;;
15454;SDS011;21057;51.024;7.540;2023-05-10T12:59:55;32.53;;;29.60;;
15454;SDS011;21057;51.024;7.540;2023-05-10T13:02:23;30.60;;;27.98;;
15454;SDS011;21057;51.024;7.540;2023-05-10T13:04:50;32.50;;;29.80;;
15454;SDS011;21057;51.024;7.540;2023-05-10T13:07:17;32.30;;;29.40;;
15454;SDS011;21057;51.024;7.540;2023-05-10T13:09:44;30.90;;;28.27;;
15454;SDS011;21057;51.024;7.540;2023-05-10T13:12:11;33.53;;;30.27;;
15454;SDS011;21057;51.024;7.540;2023-05-10T13:14:38;33.53;;;30.17;;
15454;SDS011;21057;51.024;7.540;2023-05-10T13:17:06;32.78;;;29.85;;
15454;SDS011;21057;51.024;7.540;2023-05-10T13:19:34;33.60;;;30.33;;
15454;SDS011;21057;51.024;7.540;2023-05-10T13:22:02;32.70;;;29.97;;
15454;SDS011;21057;51.024;7.540;2023-05-10T13:24:31;33.10;;;29.73;;
15454;SDS011;21057;51.024;7.540;2023-05-10T13:26:58;32.03;;;28.77;;
15454;SDS011;21057;51.024;7.540;2023-05-10T13:29:25;32.75;;;28.88;;
15454;SDS011;21057;51.024;7.540;2023-05-10T13:31:52;32.17;;;29.30;;
15454;SDS011;21057;51.024;7.540;2023-05-10T13:34:19;33.95;;;30.90;;
15454;SDS011;21057;51.024;7.540;2023-05-10T13:36:47;32.53;;;29.50;;
15454;SDS011;21057;51.024;7.540;2023-05-10T13:39:14;32.88;;;29.67;;
15454;SDS011;21057;51.024;7.540;2023-05-10T13:41:41;33.13;;;29.98;;
15454;SDS011;21057;51.024;7.540;2023-05-10T13:44:08;33.72;;;30.73;;
15454;SDS011;21057;51.024;7.540;2023-05-10T13:46:35;33.35;;;30.15;;
15454;SDS011;21057;51.024;7.540;2023-05-10T13:49:03;29.58;;;26.95;;
15454;SDS011;21057;51.024;7.540;2023-05-10T13:51:30;29.73;;;26.98;;
15454;SDS011;21057;51.024;7.540;2023-05-10T13:53:59;29.50;;;26.55;;
15454;SDS011;21057;51.024;7.540;2023-05-10T13:56:26;31.52;;;28.20;;
15454;SDS011;21057;51.024;7.540;2023-05-10T13:58:52;31.30;;;28.48;;
15454;SDS011;21057;51.024;7.540;2023-05-10T14:01:19;29.85;;;26.88;;
15454;SDS011;21057;51.024;7.540;2023-05-10T14:03:46;27.45;;;25.20;;
15454;SDS011;21057;51.024;7.540;2023-05-10T14:06:13;30.63;;;27.73;;
15454;SDS011;21057;51.024;7.540;2023-05-10T14:08:40;31.05;;;28.00;;
15454;SDS011;21057;51.024;7.540;2023-05-10T14:11:09;29.83;;;27.17;;
15454;SDS011;21057;51.024;7.540;2023-05-10T14:13:36;32.05;;;28.92;;
15454;SDS011;21057;51.024;7.540;2023-05-10T14:16:03;32.05;;;28.88;;
15454;SDS011;21057;51.024;7.540;2023-05-10T14:18:30;31.02;;;28.27;;
15454;SDS011;21057;51.024;7.540;2023-05-10T14:20:57;32.75;;;29.70;;
15454;SDS011;21057;51.024;7.540;2023-05-10T14:23:24;33.70;;;31.00;;
15454;SDS011;21057;51.024;7.540;2023-05-10T14:25:53;32.78;;;30.02;;
15454;SDS011;21057;51.024;7.540;2023-05-10T14:28:22;33.50;;;30.15;;
15454;SDS011;21057;51.024;7.540;2023-05-10T14:30:50;32.00;;;29.23;;
15454;SDS011;21057;51.024;7.540;2023-05-10T14:33:17;33.03;;;30.10;;
15454;SDS011;21057;51.024;7.540;2023-05-10T14:35:44;34.28;;;31.27;;